Time;durP1;ratioP1;P1;durP2;ratioP2;P2;SDS_P1;SDS_P2;PMS_P1;PMS_P2;Temp;Humidity;BMP_temperature;BMP_pressure;BME280_temperature;BME280_humidity;BME280_pressure;Samples;Min_cycle;Max_cycle;Signal;HPM_P1;HPM_P2
2021/11/30 00:00:08;;;;;;;;;;;;;;;;;;171028;28;945;-53
2021/11/30 00:00:13;;;;;;;;;;;;;;;;;;170706;29;932;-53
2021/11/30 00:00:18;;;;;;;;;;;;;;;;;;170956;28;1149;-53
2021/11/30 00:00:23;;;;;;;;;;;;;;;;;;171353;28;868;-54
2021/11/30 00:00:29;;;;;;;;;;;;;;;;;;171234;28;1158;-54
2021/11/30 00:00:34;;;;;;;;;;;;;;;;;;171468;28;541;-52
2021/11/30 00:00:39;;;;;;;;;;;;;;;;;;171459;28;933;-53
2021/11/30 00:00:44;;;;;;;;;;;;;;;;;;171312;28;1223;-53
2021/11/30 00:00:49;;;;;;;;;;;;;;;;;;171441;28;951;-54
2021/11/30 00:00:54;;;;;;;;;;;;;;;;;;171015;28;1165;-53
2021/11/30 00:01:00;;;;;;;;;;;;;;;;;;170950;28;5312;-53
2021/11/30 00:01:08;;;;;;;;;;;;;;;;;;170302;29;1225;-53
2021/11/30 00:01:13;;;;;;;;;;;;;;;;;;170672;29;873;-53
2021/11/30 00:01:18;;;;;;;;;;;;;;;;;;170238;29;1150;-53
2021/11/30 00:01:24;;;;;;;;;;;;;;;;;;170015;29;826;-53
2021/11/30 00:01:29;;;;;;;;;;;;;;;;;;170261;29;1194;-53
2021/11/30 00:01:34;;;;;;;;;;;;;;;;;;170606;29;853;-53
2021/11/30 00:01:40;;;;;;;;;;;;;;;;;;170530;29;1103;-54
2021/11/30 00:01:45;;;;;;;;;;;;;;;;;;170620;29;872;-54
2021/11/30 00:01:50;;;;;;;;;;;;;;;;;;170744;29;869;-53
2021/11/30 00:01:55;;;;;;;;;;;;;;;;;;171475;28;871;-54
2021/11/30 00:02:01;;;;;;;;;;;;;;;;;;170823;29;841;-53
2021/11/30 00:02:06;;;;;;;;;;;;;;;;;;170188;28;1222;-54
2021/11/30 00:02:11;;;;;;;;;;;;;;;;;;170189;29;766;-53
2021/11/30 00:02:17;;;;;;;;;;;;;;;;;;169688;29;1231;-53
2021/11/30 00:02:22;;;;;;;;;;;;;;;;;;170052;29;1056;-53
2021/11/30 00:02:29;;;;;;;;;;;;;;;;;;169790;29;1214;-53
2021/11/30 00:02:34;;;;;;;;;;;;;;;;;;168747;29;947;-53
2021/11/30 00:02:40;;;;;;;;;;;;;;;;;;169025;29;1108;-54
2021/11/30 00:02:45;;;;;;;;;;;;;;;;;;170771;29;1016;-53
2021/11/30 00:02:50;;;;;;;;;;;;;;;;;;170608;28;1130;-54
2021/11/30 00:02:55;;;;;;;;;;;;;;;;;;170111;29;869;-53
2021/11/30 00:03:00;;;;;;;;;;;;;;;;;;170124;29;806;-54
2021/11/30 00:03:06;;;;;;;;;;;;;;;;;;170706;29;1194;-54
2021/11/30 00:03:11;;;;;;;;;;;;;;;;;;170788;29;703;-53
2021/11/30 00:03:16;;;;;;;;;;;;;;;;;;170876;28;1266;-53
2021/11/30 00:03:21;;;;;;;;;;;;;;;;;;170617;29;845;-53
2021/11/30 00:03:26;;;;;;;;;;;;;;;;;;170831;28;1151;-53
2021/11/30 00:03:35;;;;;;;;;;;;;;;;;;171394;28;762;-54
2021/11/30 00:03:40;;;;;;;;;;;;;;;;;;170202;29;1285;-53
2021/11/30 00:03:45;;;;;;;;;;;;;;;;;;170154;29;735;-54
2021/11/30 00:03:50;;;;;;;;;;;;;;;;;;171056;28;1176;-53
2021/11/30 00:03:56;;;;;;;;;;;;;;;;;;171509;28;948;-53
2021/11/30 00:04:01;;;;;;;;;;;;;;;;;;171322;28;1150;-53
2021/11/30 00:04:06;;;;;;;;;;;;;;;;;;171484;28;810;-53
2021/11/30 00:04:12;;;;;;;;;;;;;;;;;;171465;28;925;-53
2021/11/30 00:04:17;;;;;;;;;;;;;;;;;;170736;28;786;-54
2021/11/30 00:04:28;;;;;;;;;;;;;;;;;;171344;28;915;-53
2021/11/30 00:04:33;;;;;;;;;;;;;;;;;;170406;28;1621;-53
2021/11/30 00:04:38;;;;;;;;;;;;;;;;;;170380;28;1795;-53
2021/11/30 00:04:43;;;;;;;;;;;;;;;;;;170113;29;1490;-52
2021/11/30 00:04:49;;;;;;;;;;;;;;;;;;171439;28;968;-53
2021/11/30 00:04:54;;;;;;;;;;;;;;;;;;171239;28;1498;-53
2021/11/30 00:04:59;;;;;;;;;;;;;;;;;;170696;28;4415;-52
2021/11/30 00:05:04;;;;;;;;;;;;;;;;;;170099;29;782;-53
2021/11/30 00:05:10;;;;;;;;;;;;;;;;;;170121;28;1007;-53
2021/11/30 00:05:15;;;;;;;;;;;;;;;;;;171225;28;1167;-53
2021/11/30 00:05:20;;;;;;;;;;;;;;;;;;171331;28;1058;-52
2021/11/30 00:05:25;;;;;;;;;;;;;;;;;;170968;28;1131;-53
2021/11/30 00:05:30;;;;;;;;;;;;;;;;;;170789;28;861;-53
2021/11/30 00:05:35;;;;;;;;;;;;;;;;;;170840;28;1100;-54
2021/11/30 00:05:41;;;;;;;;;;;;;;;;;;171403;28;805;-53
2021/11/30 00:05:46;;;;;;;;;;;;;;;;;;171366;28;1131;-54
2021/11/30 00:05:51;;;;;;;;;;;;;;;;;;170751;29;698;-53
2021/11/30 00:05:56;;;;;;;;;;;;;;;;;;170819;28;861;-53
2021/11/30 00:06:02;;;;;;;;;;;;;;;;;;170796;28;1158;-54
2021/11/30 00:06:07;;;;;;;;;;;;;;;;;;170737;29;904;-52
2021/11/30 00:06:12;;;;;;;;;;;;;;;;;;171102;28;1150;-54
2021/11/30 00:06:17;;;;;;;;;;;;;;;;;;171361;28;789;-52
2021/11/30 00:06:23;;;;;;;;;;;;;;;;;;171073;28;1158;-53
2021/11/30 00:06:28;;;;;;;;;;;;;;;;;;170787;28;798;-53
2021/11/30 00:06:33;;;;;;;;;;;;;;;;;;169433;29;1178;-53
2021/11/30 00:06:39;;;;;;;;;;;;;;;;;;170116;29;810;-54
2021/11/30 00:06:44;;;;;;;;;;;;;;;;;;171384;28;1007;-54
2021/11/30 00:06:49;;;;;;;;;;;;;;;;;;170112;29;1174;-54
2021/11/30 00:06:54;;;;;;;;;;;;;;;;;;170135;29;849;-54
2021/11/30 00:07:01;;;;;;;;;;;;;;;;;;170676;28;1440;-52
2021/11/30 00:07:06;;;;;;;;;;;;;;;;;;170933;28;1698;-53
2021/11/30 00:07:11;;;;;;;;;;;;;;;;;;171726;28;961;-53
2021/11/30 00:07:16;;;;;;;;;;;;;;;;;;171335;28;879;-53
2021/11/30 00:07:21;;;;;;;;;;;;;;;;;;171676;28;1341;-52
2021/11/30 00:07:26;;;;;;;;;;;;;;;;;;170766;29;845;-53
2021/11/30 00:07:32;;;;;;;;;;;;;;;;;;169375;29;1132;-53
2021/11/30 00:07:37;;;;;;;;;;;;;;;;;;169854;29;1572;-54
2021/11/30 00:07:42;;;;;;;;;;;;;;;;;;169395;29;917;-53
2021/11/30 00:07:51;;;;;;;;;;;;;;;;;;170431;29;1183;-53
2021/11/30 00:07:57;;;;;;;;;;;;;;;;;;170600;29;1131;-53
2021/11/30 00:08:03;;;;;;;;;;;;;;;;;;170140;29;821;-53
2021/11/30 00:08:08;;;;;;;;;;;;;;;;;;170244;29;1374;-53
2021/11/30 00:08:15;;;;;;;;;;;;;;;;;;171421;28;805;-53
2021/11/30 00:08:20;;;;;;;;;;;;;;;;;;171123;28;1047;-54
2021/11/30 00:08:29;;;;;;;;;;;;;;;;;;170772;28;787;-53
2021/11/30 00:08:36;;;;;;;;;;;;;;;;;;171208;28;1143;-53
2021/11/30 00:08:42;;;;;;;;;;;;;;;;;;171392;28;984;-53
2021/11/30 00:08:48;;;;;;;;;;;;;;;;;;170706;28;1171;-54
2021/11/30 00:09:08;;;;;;;;;;;;;;;;;;170786;29;854;-53
2021/11/30 00:10:47;;;;;;;;;;;;;;;;;;168684;29;1127;-53
2021/11/30 00:10:54;;;;;;;;;;;;;;;;;;170134;29;1233;-53
2021/11/30 00:10:59;;;;;;;;;;;;;;;;;;170713;29;762;-53
2021/11/30 00:11:05;;;;;;;;;;;;;;;;;;170766;28;1203;-53
2021/11/30 00:11:11;;;;;;;;;;;;;;;;;;171915;28;838;-54
2021/11/30 00:11:16;;;;;;;;;;;;;;;;;;171058;28;1911;-52
2021/11/30 00:11:21;;;;;;;;;;;;;;;;;;169857;29;1828;-53
2021/11/30 00:11:26;;;;;;;;;;;;;;;;;;170666;29;869;-53
2021/11/30 00:11:31;;;;;;;;;;;;;;;;;;171209;28;1159;-54
2021/11/30 00:11:37;;;;;;;;;;;;;;;;;;171464;28;920;-54
2021/11/30 00:11:42;;;;;;;;;;;;;;;;;;171104;28;1072;-53
2021/11/30 00:11:47;;;;;;;;;;;;;;;;;;171458;28;912;-53
2021/11/30 00:11:52;;;;;;;;;;;;;;;;;;171254;28;1528;-53
2021/11/30 00:11:58;;;;;;;;;;;;;;;;;;171412;28;869;-53
2021/11/30 00:12:04;;;;;;;;;;;;;;;;;;171402;28;1134;-54
2021/11/30 00:12:10;;;;;;;;;;;;;;;;;;172137;28;806;-52
2021/11/30 00:12:16;;;;;;;;;;;;;;;;;;171854;28;1087;-54
2021/11/30 00:12:22;;;;;;;;;;;;;;;;;;171339;28;821;-53
2021/11/30 00:12:27;;;;;;;;;;;;;;;;;;171493;28;1222;-54
2021/11/30 00:12:34;;;;;;;;;;;;;;;;;;172760;28;833;-53
2021/11/30 00:12:40;;;;;;;;;;;;;;;;;;172430;28;1192;-53
2021/11/30 00:12:45;;;;;;;;;;;;;;;;;;171432;28;829;-53
2021/11/30 00:12:50;;;;;;;;;;;;;;;;;;171467;28;1190;-54
2021/11/30 00:12:56;;;;;;;;;;;;;;;;;;171671;28;4444;-53
2021/11/30 00:13:01;;;;;;;;;;;;;;;;;;171811;28;1114;-54
2021/11/30 00:13:06;;;;;;;;;;;;;;;;;;171393;28;1174;-54
2021/11/30 00:13:15;;;;;;;;;;;;;;;;;;171454;28;991;-53
2021/11/30 00:13:21;;;;;;;;;;;;;;;;;;170672;29;797;-53
2021/11/30 00:13:26;;;;;;;;;;;;;;;;;;170835;28;1285;-52
2021/11/30 00:13:32;;;;;;;;;;;;;;;;;;172058;28;900;-53
2021/11/30 00:13:38;;;;;;;;;;;;;;;;;;172042;28;1162;-52
2021/11/30 00:13:43;;;;;;;;;;;;;;;;;;171387;28;943;-54
2021/11/30 00:13:48;;;;;;;;;;;;;;;;;;171411;28;875;-53
2021/11/30 00:13:54;;;;;;;;;;;;;;;;;;171465;28;982;-53
2021/11/30 00:13:59;;;;;;;;;;;;;;;;;;171435;28;818;-53
2021/11/30 00:14:04;;;;;;;;;;;;;;;;;;172030;28;1075;-53
2021/11/30 00:14:09;;;;;;;;;;;;;;;;;;172145;28;829;-54
2021/11/30 00:14:15;;;;;;;;;;;;;;;;;;171636;28;1181;-54
2021/11/30 00:14:20;;;;;;;;;;;;;;;;;;171262;28;848;-53
2021/11/30 00:14:25;;;;;;;;;;;;;;;;;;171388;28;1147;-53
2021/11/30 00:14:30;;;;;;;;;;;;;;;;;;171820;28;1200;-53
2021/11/30 00:14:36;;;;;;;;;;;;;;;;;;171338;28;879;-53
2021/11/30 00:14:41;;;;;;;;;;;;;;;;;;170793;28;817;-53
2021/11/30 00:14:47;;;;;;;;;;;;;;;;;;171328;28;801;-53
2021/11/30 00:14:53;;;;;;;;;;;;;;;;;;171962;28;1359;-54
2021/11/30 00:14:58;;;;;;;;;;;;;;;;;;170964;28;1569;-54
2021/11/30 00:15:03;;;;;;;;;;;;;;;;;;171614;28;1101;-53
2021/11/30 00:15:09;;;;;;;;;;;;;;;;;;171445;28;999;-53
2021/11/30 00:15:14;;;;;;;;;;;;;;;;;;171782;28;1217;-53
2021/11/30 00:15:19;;;;;;;;;;;;;;;;;;172065;28;943;-53
2021/11/30 00:15:24;;;;;;;;;;;;;;;;;;171775;28;1173;-53
2021/11/30 00:15:29;;;;;;;;;;;;;;;;;;171379;28;889;-54
2021/11/30 00:15:34;;;;;;;;;;;;;;;;;;171411;28;921;-53
2021/11/30 00:15:40;;;;;;;;;;;;;;;;;;170807;28;971;-52
2021/11/30 00:15:48;;;;;;;;;;;;;;;;;;170714;28;855;-54
2021/11/30 00:15:53;;;;;;;;;;;;;;;;;;171539;28;1024;-54
2021/11/30 00:15:59;;;;;;;;;;;;;;;;;;171366;28;1099;-54
2021/11/30 00:16:04;;;;;;;;;;;;;;;;;;172068;28;917;-53
2021/11/30 00:16:10;;;;;;;;;;;;;;;;;;172143;28;833;-54
2021/11/30 00:16:16;;;;;;;;;;;;;;;;;;171405;28;877;-53
2021/11/30 00:16:21;;;;;;;;;;;;;;;;;;171342;28;849;-54
2021/11/30 00:16:26;;;;;;;;;;;;;;;;;;171965;28;1285;-53
2021/11/30 00:16:32;;;;;;;;;;;;;;;;;;172157;28;889;-52
2021/11/30 00:16:37;;;;;;;;;;;;;;;;;;171601;28;1149;-53
2021/11/30 00:16:42;;;;;;;;;;;;;;;;;;171440;28;956;-54
2021/11/30 00:16:47;;;;;;;;;;;;;;;;;;171679;28;1158;-53
2021/11/30 00:16:52;;;;;;;;;;;;;;;;;;172069;28;935;-53
2021/11/30 00:16:58;;;;;;;;;;;;;;;;;;171007;28;4410;-53
2021/11/30 00:17:03;;;;;;;;;;;;;;;;;;171279;28;1053;-53
2021/11/30 00:17:09;;;;;;;;;;;;;;;;;;171419;28;797;-54
2021/11/30 00:17:14;;;;;;;;;;;;;;;;;;170832;28;917;-53
2021/11/30 00:17:19;;;;;;;;;;;;;;;;;;170711;29;889;-53
2021/11/30 00:17:24;;;;;;;;;;;;;;;;;;171754;28;1150;-54
2021/11/30 00:17:30;;;;;;;;;;;;;;;;;;172133;28;931;-54
2021/11/30 00:17:35;;;;;;;;;;;;;;;;;;171737;28;1154;-53
2021/11/30 00:17:40;;;;;;;;;;;;;;;;;;171499;28;885;-54
2021/11/30 00:17:45;;;;;;;;;;;;;;;;;;171584;28;1093;-54
2021/11/30 00:17:50;;;;;;;;;;;;;;;;;;172130;28;880;-52
2021/11/30 00:17:55;;;;;;;;;;;;;;;;;;172164;28;880;-53
2021/11/30 00:18:01;;;;;;;;;;;;;;;;;;171462;28;1249;-54
2021/11/30 00:18:06;;;;;;;;;;;;;;;;;;171502;28;852;-53
2021/11/30 00:18:11;;;;;;;;;;;;;;;;;;171919;28;1229;-53
2021/11/30 00:18:16;;;;;;;;;;;;;;;;;;172092;28;873;-53
2021/11/30 00:18:24;;;;;;;;;;;;;;;;;;171663;28;1165;-54
2021/11/30 00:18:32;;;;;;;;;;;;;;;;;;171488;28;872;-53
2021/11/30 00:18:37;;;;;;;;;;;;;;;;;;171516;28;885;-53
2021/11/30 00:18:42;;;;;;;;;;;;;;;;;;171460;28;798;-53
2021/11/30 00:18:48;;;;;;;;;;;;;;;;;;172079;28;1336;-53
2021/11/30 00:18:53;;;;;;;;;;;;;;;;;;172205;28;856;-54
2021/11/30 00:18:58;;;;;;;;;;;;;;;;;;171644;28;1217;-54
2021/11/30 00:19:03;;;;;;;;;;;;;;;;;;171456;28;1109;-53
2021/11/30 00:19:08;;;;;;;;;;;;;;;;;;171687;28;1232;-54
2021/11/30 00:19:13;;;;;;;;;;;;;;;;;;172168;28;857;-53
2021/11/30 00:19:19;;;;;;;;;;;;;;;;;;171950;28;1181;-53
2021/11/30 00:19:24;;;;;;;;;;;;;;;;;;171445;28;916;-52
2021/11/30 00:19:29;;;;;;;;;;;;;;;;;;171303;28;1157;-54
2021/11/30 00:19:35;;;;;;;;;;;;;;;;;;172014;28;1222;-53
2021/11/30 00:19:40;;;;;;;;;;;;;;;;;;172118;28;876;-53
2021/11/30 00:19:46;;;;;;;;;;;;;;;;;;171573;28;1174;-53
2021/11/30 00:19:51;;;;;;;;;;;;;;;;;;171468;28;854;-53
2021/11/30 00:19:56;;;;;;;;;;;;;;;;;;171765;28;1084;-54
2021/11/30 00:20:03;;;;;;;;;;;;;;;;;;172130;28;1014;-53
2021/11/30 00:20:09;;;;;;;;;;;;;;;;;;170993;28;1183;-53
2021/11/30 00:20:14;;;;;;;;;;;;;;;;;;170727;29;932;-53
2021/11/30 00:20:19;;;;;;;;;;;;;;;;;;170858;28;1135;-54
2021/11/30 00:20:24;;;;;;;;;;;;;;;;;;171433;28;793;-54
2021/11/30 00:20:29;;;;;;;;;;;;;;;;;;171292;28;1131;-53
2021/11/30 00:20:38;;;;;;;;;;;;;;;;;;170746;29;992;-53
2021/11/30 00:20:43;;;;;;;;;;;;;;;;;;171016;28;1167;-54
2021/11/30 00:20:49;;;;;;;;;;;;;;;;;;171471;28;829;-53
2021/11/30 00:20:54;;;;;;;;;;;;;;;;;;171152;28;1222;-54
2021/11/30 00:21:00;;;;;;;;;;;;;;;;;;170285;28;4569;-54
2021/11/30 00:21:06;;;;;;;;;;;;;;;;;;170813;28;1230;-53
2021/11/30 00:21:12;;;;;;;;;;;;;;;;;;171412;28;864;-53
2021/11/30 00:21:17;;;;;;;;;;;;;;;;;;171128;28;1193;-54
2021/11/30 00:21:22;;;;;;;;;;;;;;;;;;170618;29;952;-54
2021/11/30 00:21:27;;;;;;;;;;;;;;;;;;170904;28;936;-53
2021/11/30 00:21:32;;;;;;;;;;;;;;;;;;171911;28;1241;-54
2021/11/30 00:21:38;;;;;;;;;;;;;;;;;;172051;28;785;-54
2021/11/30 00:21:43;;;;;;;;;;;;;;;;;;171479;28;1222;-53
2021/11/30 00:21:48;;;;;;;;;;;;;;;;;;171374;28;525;-54
2021/11/30 00:21:53;;;;;;;;;;;;;;;;;;171586;28;1229;-53
2021/11/30 00:21:59;;;;;;;;;;;;;;;;;;172041;28;988;-53
2021/11/30 00:22:05;;;;;;;;;;;;;;;;;;171861;28;1217;-52
2021/11/30 00:22:10;;;;;;;;;;;;;;;;;;171391;28;952;-54
2021/11/30 00:22:17;;;;;;;;;;;;;;;;;;171474;28;1221;-53
2021/11/30 00:22:22;;;;;;;;;;;;;;;;;;172021;28;825;-53
2021/11/30 00:22:28;;;;;;;;;;;;;;;;;;171899;28;1200;-53
2021/11/30 00:22:34;;;;;;;;;;;;;;;;;;171435;28;904;-54
2021/11/30 00:22:39;;;;;;;;;;;;;;;;;;171523;28;1162;-52
2021/11/30 00:22:44;;;;;;;;;;;;;;;;;;172167;28;892;-53
2021/11/30 00:22:49;;;;;;;;;;;;;;;;;;172138;28;757;-53
2021/11/30 00:22:54;;;;;;;;;;;;;;;;;;171502;28;1157;-53
2021/11/30 00:22:59;;;;;;;;;;;;;;;;;;171396;28;1348;-53
2021/11/30 00:23:05;;;;;;;;;;;;;;;;;;171714;28;1103;-53
2021/11/30 00:23:10;;;;;;;;;;;;;;;;;;172095;28;880;-54
2021/11/30 00:23:15;;;;;;;;;;;;;;;;;;171784;28;1221;-53
2021/11/30 00:23:21;;;;;;;;;;;;;;;;;;171321;28;873;-53
2021/11/30 00:23:26;;;;;;;;;;;;;;;;;;171228;28;1154;-54
2021/11/30 00:23:31;;;;;;;;;;;;;;;;;;171335;28;1642;-54
2021/11/30 00:23:36;;;;;;;;;;;;;;;;;;171342;28;1035;-54
2021/11/30 00:23:41;;;;;;;;;;;;;;;;;;171948;28;1183;-53
2021/11/30 00:23:47;;;;;;;;;;;;;;;;;;172047;28;802;-54
2021/11/30 00:23:52;;;;;;;;;;;;;;;;;;171691;28;1159;-53
2021/11/30 00:23:57;;;;;;;;;;;;;;;;;;171380;28;904;-54
2021/11/30 00:24:02;;;;;;;;;;;;;;;;;;171587;28;1286;-54
2021/11/30 00:24:07;;;;;;;;;;;;;;;;;;172134;28;1038;-53
2021/11/30 00:24:12;;;;;;;;;;;;;;;;;;172107;28;1142;-53
2021/11/30 00:24:18;;;;;;;;;;;;;;;;;;171349;28;905;-54
2021/11/30 00:24:27;;;;;;;;;;;;;;;;;;171425;28;844;-54
2021/11/30 00:24:32;;;;;;;;;;;;;;;;;;171287;28;1400;-53
2021/11/30 00:24:37;;;;;;;;;;;;;;;;;;171007;28;1662;-53
2021/11/30 00:24:43;;;;;;;;;;;;;;;;;;170627;28;1583;-53
2021/11/30 00:24:48;;;;;;;;;;;;;;;;;;170751;28;1493;-52
2021/11/30 00:24:53;;;;;;;;;;;;;;;;;;171110;28;1400;-53
2021/11/30 00:24:59;;;;;;;;;;;;;;;;;;171751;28;4412;-53
2021/11/30 00:25:04;;;;;;;;;;;;;;;;;;171619;28;1422;-54
2021/11/30 00:25:09;;;;;;;;;;;;;;;;;;172566;28;851;-53
2021/11/30 00:25:14;;;;;;;;;;;;;;;;;;172736;28;1197;-53
2021/11/30 00:25:19;;;;;;;;;;;;;;;;;;173409;28;951;-53
2021/11/30 00:25:24;;;;;;;;;;;;;;;;;;173114;28;1201;-53
2021/11/30 00:25:30;;;;;;;;;;;;;;;;;;172798;28;892;-53
2021/11/30 00:25:35;;;;;;;;;;;;;;;;;;172766;28;1350;-54
2021/11/30 00:25:40;;;;;;;;;;;;;;;;;;172802;28;893;-54
2021/11/30 00:25:45;;;;;;;;;;;;;;;;;;172749;28;813;-53
2021/11/30 00:25:51;;;;;;;;;;;;;;;;;;173206;28;1170;-54
2021/11/30 00:25:56;;;;;;;;;;;;;;;;;;173531;28;524;-53
2021/11/30 00:26:01;;;;;;;;;;;;;;;;;;172985;28;1221;-53
2021/11/30 00:26:06;;;;;;;;;;;;;;;;;;172775;28;785;-54
2021/11/30 00:26:11;;;;;;;;;;;;;;;;;;172295;28;1554;-54
2021/11/30 00:26:17;;;;;;;;;;;;;;;;;;172610;28;924;-53
2021/11/30 00:26:22;;;;;;;;;;;;;;;;;;172754;28;1040;-53
2021/11/30 00:26:27;;;;;;;;;;;;;;;;;;172657;28;904;-53
2021/11/30 00:26:32;;;;;;;;;;;;;;;;;;172781;28;868;-53
2021/11/30 00:26:37;;;;;;;;;;;;;;;;;;173208;28;1090;-52
2021/11/30 00:26:43;;;;;;;;;;;;;;;;;;173475;28;872;-53
2021/11/30 00:26:48;;;;;;;;;;;;;;;;;;173080;28;1281;-53
2021/11/30 00:26:53;;;;;;;;;;;;;;;;;;172706;28;928;-53
2021/11/30 00:26:58;;;;;;;;;;;;;;;;;;172321;28;1170;-53
2021/11/30 00:27:05;;;;;;;;;;;;;;;;;;171591;28;1078;-54
2021/11/30 00:27:10;;;;;;;;;;;;;;;;;;171565;28;1079;-53
2021/11/30 00:27:15;;;;;;;;;;;;;;;;;;172065;28;941;-53
2021/11/30 00:27:21;;;;;;;;;;;;;;;;;;171966;28;846;-54
2021/11/30 00:27:26;;;;;;;;;;;;;;;;;;170668;28;1287;-54
2021/11/30 00:27:31;;;;;;;;;;;;;;;;;;170793;28;901;-53
2021/11/30 00:27:36;;;;;;;;;;;;;;;;;;171651;28;1114;-53
2021/11/30 00:27:41;;;;;;;;;;;;;;;;;;172149;28;917;-53
2021/11/30 00:27:47;;;;;;;;;;;;;;;;;;171690;28;1134;-53
2021/11/30 00:27:52;;;;;;;;;;;;;;;;;;171342;28;881;-53
2021/11/30 00:27:57;;;;;;;;;;;;;;;;;;171461;28;1175;-53
2021/11/30 00:28:03;;;;;;;;;;;;;;;;;;170806;28;1122;-53
2021/11/30 00:28:08;;;;;;;;;;;;;;;;;;170728;29;980;-54
2021/11/30 00:28:13;;;;;;;;;;;;;;;;;;170785;29;857;-54
2021/11/30 00:28:18;;;;;;;;;;;;;;;;;;171340;28;754;-54
2021/11/30 00:28:23;;;;;;;;;;;;;;;;;;171865;28;1142;-54
2021/11/30 00:28:29;;;;;;;;;;;;;;;;;;171555;28;1783;-54
2021/11/30 00:28:34;;;;;;;;;;;;;;;;;;171512;28;956;-53
2021/11/30 00:28:39;;;;;;;;;;;;;;;;;;171431;28;849;-53
2021/11/30 00:28:44;;;;;;;;;;;;;;;;;;171482;28;1166;-54
2021/11/30 00:28:49;;;;;;;;;;;;;;;;;;172106;28;852;-53
2021/11/30 00:28:54;;;;;;;;;;;;;;;;;;171985;28;865;-54
2021/11/30 00:29:00;;;;;;;;;;;;;;;;;;170750;28;4541;-54
2021/11/30 00:29:05;;;;;;;;;;;;;;;;;;171334;28;889;-54
2021/11/30 00:29:10;;;;;;;;;;;;;;;;;;171754;28;1166;-53
2021/11/30 00:29:15;;;;;;;;;;;;;;;;;;172033;28;786;-54
2021/11/30 00:29:20;;;;;;;;;;;;;;;;;;171601;28;1394;-52
2021/11/30 00:29:26;;;;;;;;;;;;;;;;;;171245;28;929;-54
2021/11/30 00:29:31;;;;;;;;;;;;;;;;;;171334;28;1179;-53
2021/11/30 00:29:37;;;;;;;;;;;;;;;;;;172004;28;845;-53
2021/11/30 00:29:42;;;;;;;;;;;;;;;;;;172026;28;849;-54
2021/11/30 00:29:47;;;;;;;;;;;;;;;;;;171302;28;1261;-54
2021/11/30 00:29:52;;;;;;;;;;;;;;;;;;171928;28;798;-54
2021/11/30 00:29:57;;;;;;;;;;;;;;;;;;171742;28;1412;-54
2021/11/30 00:30:03;;;;;;;;;;;;;;;;;;171947;28;1464;-53
2021/11/30 00:30:08;;;;;;;;;;;;;;;;;;172796;28;1050;-53
2021/11/30 00:30:13;;;;;;;;;;;;;;;;;;173442;28;1318;-53
2021/11/30 00:30:19;;;;;;;;;;;;;;;;;;172151;28;995;-53
2021/11/30 00:30:25;;;;;;;;;;;;;;;;;;171409;28;868;-53
2021/11/30 00:30:32;;;;;;;;;;;;;;;;;;171599;28;1166;-52
2021/11/30 00:30:37;;;;;;;;;;;;;;;;;;172190;28;833;-54
2021/11/30 00:30:42;;;;;;;;;;;;;;;;;;171884;28;1213;-53
2021/11/30 00:30:49;;;;;;;;;;;;;;;;;;171428;28;877;-53
2021/11/30 00:30:54;;;;;;;;;;;;;;;;;;171634;28;1142;-53
2021/11/30 00:30:59;;;;;;;;;;;;;;;;;;171986;28;1121;-52
2021/11/30 00:31:04;;;;;;;;;;;;;;;;;;171430;28;928;-53
2021/11/30 00:31:10;;;;;;;;;;;;;;;;;;171528;28;864;-53
2021/11/30 00:31:15;;;;;;;;;;;;;;;;;;171452;28;873;-53
2021/11/30 00:31:20;;;;;;;;;;;;;;;;;;171702;28;1967;-53
2021/11/30 00:31:25;;;;;;;;;;;;;;;;;;172074;28;884;-54
2021/11/30 00:31:30;;;;;;;;;;;;;;;;;;171840;28;1217;-53
2021/11/30 00:31:35;;;;;;;;;;;;;;;;;;171485;28;948;-54
2021/11/30 00:31:41;;;;;;;;;;;;;;;;;;171565;28;1158;-53
2021/11/30 00:31:46;;;;;;;;;;;;;;;;;;172155;28;1024;-54
2021/11/30 00:31:51;;;;;;;;;;;;;;;;;;172058;28;865;-53
2021/11/30 00:31:56;;;;;;;;;;;;;;;;;;171493;28;1361;-54
2021/11/30 00:32:02;;;;;;;;;;;;;;;;;;171361;28;1055;-53
2021/11/30 00:32:08;;;;;;;;;;;;;;;;;;172014;28;1190;-53
2021/11/30 00:32:13;;;;;;;;;;;;;;;;;;172197;28;805;-53
2021/11/30 00:32:18;;;;;;;;;;;;;;;;;;171505;28;1117;-53
2021/11/30 00:32:23;;;;;;;;;;;;;;;;;;171253;28;817;-53
2021/11/30 00:32:28;;;;;;;;;;;;;;;;;;171438;28;1110;-53
2021/11/30 00:32:34;;;;;;;;;;;;;;;;;;172118;28;794;-54
2021/11/30 00:32:39;;;;;;;;;;;;;;;;;;172040;28;1212;-53
2021/11/30 00:32:44;;;;;;;;;;;;;;;;;;171455;28;900;-53
2021/11/30 00:32:49;;;;;;;;;;;;;;;;;;171458;28;789;-54
2021/11/30 00:32:54;;;;;;;;;;;;;;;;;;171897;28;1363;-52
2021/11/30 00:33:00;;;;;;;;;;;;;;;;;;171387;28;4403;-53
2021/11/30 00:33:05;;;;;;;;;;;;;;;;;;171434;28;1110;-53
2021/11/30 00:33:10;;;;;;;;;;;;;;;;;;172132;28;880;-54
2021/11/30 00:33:15;;;;;;;;;;;;;;;;;;171805;28;1142;-53
2021/11/30 00:33:21;;;;;;;;;;;;;;;;;;171319;28;869;-54
2021/11/30 00:33:26;;;;;;;;;;;;;;;;;;171290;28;1194;-53
2021/11/30 00:33:31;;;;;;;;;;;;;;;;;;172151;28;859;-54
2021/11/30 00:33:36;;;;;;;;;;;;;;;;;;172110;28;841;-54
2021/11/30 00:33:42;;;;;;;;;;;;;;;;;;171618;28;1324;-54
2021/11/30 00:33:47;;;;;;;;;;;;;;;;;;171537;28;801;-53
2021/11/30 00:33:52;;;;;;;;;;;;;;;;;;171814;28;1154;-53
2021/11/30 00:33:58;;;;;;;;;;;;;;;;;;172152;28;840;-53
2021/11/30 00:34:03;;;;;;;;;;;;;;;;;;171829;28;1126;-53
2021/11/30 00:34:08;;;;;;;;;;;;;;;;;;171414;28;939;-54
2021/11/30 00:34:13;;;;;;;;;;;;;;;;;;171410;28;1212;-54
2021/11/30 00:34:18;;;;;;;;;;;;;;;;;;172060;28;841;-53
2021/11/30 00:34:24;;;;;;;;;;;;;;;;;;171964;28;904;-53
2021/11/30 00:34:29;;;;;;;;;;;;;;;;;;171364;28;1359;-52
2021/11/30 00:34:34;;;;;;;;;;;;;;;;;;171387;28;801;-54
2021/11/30 00:34:39;;;;;;;;;;;;;;;;;;171682;28;1178;-53
2021/11/30 00:34:44;;;;;;;;;;;;;;;;;;172000;28;841;-53
2021/11/30 00:34:49;;;;;;;;;;;;;;;;;;171791;28;1126;-53
2021/11/30 00:34:55;;;;;;;;;;;;;;;;;;171313;28;790;-54
2021/11/30 00:35:00;;;;;;;;;;;;;;;;;;171397;28;884;-53
2021/11/30 00:35:05;;;;;;;;;;;;;;;;;;171395;28;939;-54
2021/11/30 00:35:10;;;;;;;;;;;;;;;;;;171453;28;762;-53
2021/11/30 00:35:15;;;;;;;;;;;;;;;;;;170877;28;1520;-52
2021/11/30 00:35:23;;;;;;;;;;;;;;;;;;170125;28;1636;-53
2021/11/30 00:35:28;;;;;;;;;;;;;;;;;;171437;28;1281;-53
2021/11/30 00:35:34;;;;;;;;;;;;;;;;;;170677;28;1694;-53
2021/11/30 00:35:39;;;;;;;;;;;;;;;;;;171807;28;1000;-53
2021/11/30 00:35:44;;;;;;;;;;;;;;;;;;172101;28;1098;-53
2021/11/30 00:35:49;;;;;;;;;;;;;;;;;;171810;28;1190;-54
2021/11/30 00:35:54;;;;;;;;;;;;;;;;;;171447;28;797;-53
2021/11/30 00:36:00;;;;;;;;;;;;;;;;;;171238;28;1155;-51
2021/11/30 00:36:05;;;;;;;;;;;;;;;;;;171456;28;793;-54
2021/11/30 00:36:10;;;;;;;;;;;;;;;;;;171483;28;883;-53
2021/11/30 00:36:17;;;;;;;;;;;;;;;;;;171898;28;1131;-54
2021/11/30 00:36:22;;;;;;;;;;;;;;;;;;171955;28;1154;-53
2021/11/30 00:36:28;;;;;;;;;;;;;;;;;;171354;28;805;-52
2021/11/30 00:36:33;;;;;;;;;;;;;;;;;;171457;28;1059;-54
2021/11/30 00:36:38;;;;;;;;;;;;;;;;;;171938;28;1102;-54
2021/11/30 00:36:43;;;;;;;;;;;;;;;;;;172170;28;959;-54
2021/11/30 00:36:48;;;;;;;;;;;;;;;;;;171800;28;1213;-54
2021/11/30 00:36:53;;;;;;;;;;;;;;;;;;171492;28;793;-53
2021/11/30 00:36:59;;;;;;;;;;;;;;;;;;171132;28;4417;-53
2021/11/30 00:37:04;;;;;;;;;;;;;;;;;;171357;28;1273;-54
2021/11/30 00:37:09;;;;;;;;;;;;;;;;;;171480;28;868;-54
2021/11/30 00:37:15;;;;;;;;;;;;;;;;;;171571;28;747;-53
2021/11/30 00:37:20;;;;;;;;;;;;;;;;;;171386;28;821;-53
2021/11/30 00:37:25;;;;;;;;;;;;;;;;;;171894;28;1178;-52
2021/11/30 00:37:30;;;;;;;;;;;;;;;;;;172122;28;848;-53
2021/11/30 00:37:35;;;;;;;;;;;;;;;;;;171677;28;1157;-53
2021/11/30 00:37:41;;;;;;;;;;;;;;;;;;171518;28;943;-53
2021/11/30 00:37:46;;;;;;;;;;;;;;;;;;171556;28;1173;-53
2021/11/30 00:37:51;;;;;;;;;;;;;;;;;;172151;28;937;-52
2021/11/30 00:37:56;;;;;;;;;;;;;;;;;;172203;28;805;-54
2021/11/30 00:38:02;;;;;;;;;;;;;;;;;;171049;28;1556;-53
2021/11/30 00:38:08;;;;;;;;;;;;;;;;;;170840;28;865;-53
2021/11/30 00:38:14;;;;;;;;;;;;;;;;;;171948;28;1142;-53
2021/11/30 00:38:19;;;;;;;;;;;;;;;;;;171940;28;934;-53
2021/11/30 00:38:26;;;;;;;;;;;;;;;;;;171418;28;1146;-54
2021/11/30 00:38:32;;;;;;;;;;;;;;;;;;171418;28;848;-53
2021/11/30 00:38:37;;;;;;;;;;;;;;;;;;171986;28;1277;-54
2021/11/30 00:38:42;;;;;;;;;;;;;;;;;;172027;28;980;-52
2021/11/30 00:38:47;;;;;;;;;;;;;;;;;;170883;28;1171;-53
2021/11/30 00:38:52;;;;;;;;;;;;;;;;;;170757;29;838;-54
2021/11/30 00:38:57;;;;;;;;;;;;;;;;;;170901;28;1100;-54
2021/11/30 00:39:03;;;;;;;;;;;;;;;;;;171493;28;790;-53
2021/11/30 00:39:08;;;;;;;;;;;;;;;;;;171314;28;1159;-53
2021/11/30 00:39:13;;;;;;;;;;;;;;;;;;170760;29;951;-52
2021/11/30 00:39:18;;;;;;;;;;;;;;;;;;170654;29;1051;-53
2021/11/30 00:39:23;;;;;;;;;;;;;;;;;;171207;28;1238;-54
2021/11/30 00:39:29;;;;;;;;;;;;;;;;;;171319;28;897;-54
2021/11/30 00:39:34;;;;;;;;;;;;;;;;;;171493;28;1351;-53
2021/11/30 00:39:39;;;;;;;;;;;;;;;;;;171376;28;1015;-54
2021/11/30 00:39:44;;;;;;;;;;;;;;;;;;171607;28;1158;-54
2021/11/30 00:39:50;;;;;;;;;;;;;;;;;;171986;28;853;-52
2021/11/30 00:39:55;;;;;;;;;;;;;;;;;;171865;28;1150;-53
2021/11/30 00:40:00;;;;;;;;;;;;;;;;;;171359;28;870;-53
2021/11/30 00:40:06;;;;;;;;;;;;;;;;;;171371;28;1008;-52
2021/11/30 00:40:11;;;;;;;;;;;;;;;;;;171920;28;1266;-54
2021/11/30 00:40:16;;;;;;;;;;;;;;;;;;172256;28;825;-54
2021/11/30 00:40:22;;;;;;;;;;;;;;;;;;172118;28;1099;-52
2021/11/30 00:40:27;;;;;;;;;;;;;;;;;;172012;28;801;-53
2021/11/30 00:40:35;;;;;;;;;;;;;;;;;;172356;28;1158;-54